sensor_id;sensor_type;location;lat;lon;timestamp;temperature;humidity
14252;DHT22;7210;51.502;10.722;2022-12-18T00:01:28;-9.80;4.10
14252;DHT22;7210;51.502;10.722;2022-12-18T00:03:59;-9.80;1.00
14252;DHT22;7210;51.502;10.722;2022-12-18T00:06:28;-9.80;1.50
14252;DHT22;7210;51.502;10.722;2022-12-18T00:08:57;-9.80;1.00
14252;DHT22;7210;51.502;10.722;2022-12-18T00:11:28;-9.90;1.00
14252;DHT22;7210;51.502;10.722;2022-12-18T00:13:59;-9.90;1.00
14252;DHT22;7210;51.502;10.722;2022-12-18T00:16:28;-9.90;14.30
14252;DHT22;7210;51.502;10.722;2022-12-18T00:18:59;-9.80;2.00
14252;DHT22;7210;51.502;10.722;2022-12-18T00:21:28;-9.70;4.50
14252;DHT22;7210;51.502;10.722;2022-12-18T00:23:57;-9.80;2.30
14252;DHT22;7210;51.502;10.722;2022-12-18T00:26:26;-9.80;1.20
14252;DHT22;7210;51.502;10.722;2022-12-18T00:29:00;-9.90;1.00
14252;DHT22;7210;51.502;10.722;2022-12-18T00:31:30;-9.90;1.60
14252;DHT22;7210;51.502;10.722;2022-12-18T00:33:59;-9.80;1.00
14252;DHT22;7210;51.502;10.722;2022-12-18T00:36:28;-9.90;1.00
14252;DHT22;7210;51.502;10.722;2022-12-18T00:39:02;-9.80;1.00
14252;DHT22;7210;51.502;10.722;2022-12-18T00:41:31;-9.80;1.00
14252;DHT22;7210;51.502;10.722;2022-12-18T00:44:19;-9.90;1.00
14252;DHT22;7210;51.502;10.722;2022-12-18T00:46:47;-9.90;1.00
14252;DHT22;7210;51.502;10.722;2022-12-18T00:49:16;-9.80;1.00
14252;DHT22;7210;51.502;10.722;2022-12-18T00:51:44;-9.80;1.00
14252;DHT22;7210;51.502;10.722;2022-12-18T00:54:12;-9.80;1.00
14252;DHT22;7210;51.502;10.722;2022-12-18T00:56:40;-9.80;1.00
14252;DHT22;7210;51.502;10.722;2022-12-18T00:59:07;-9.80;1.00
14252;DHT22;7210;51.502;10.722;2022-12-18T01:01:36;-9.80;1.00
14252;DHT22;7210;51.502;10.722;2022-12-18T01:04:04;-9.80;1.00
14252;DHT22;7210;51.502;10.722;2022-12-18T01:06:31;-9.80;1.00
14252;DHT22;7210;51.502;10.722;2022-12-18T01:08:59;-9.70;1.00
14252;DHT22;7210;51.502;10.722;2022-12-18T01:11:26;-9.80;1.00
14252;DHT22;7210;51.502;10.722;2022-12-18T01:13:54;-9.80;1.00
14252;DHT22;7210;51.502;10.722;2022-12-18T01:16:22;-9.90;1.00
14252;DHT22;7210;51.502;10.722;2022-12-18T01:18:53;-9.80;1.00
14252;DHT22;7210;51.502;10.722;2022-12-18T01:21:21;-9.90;1.00
14252;DHT22;7210;51.502;10.722;2022-12-18T01:23:52;-9.80;1.00
14252;DHT22;7210;51.502;10.722;2022-12-18T01:26:20;-9.90;1.00
14252;DHT22;7210;51.502;10.722;2022-12-18T01:28:47;-9.90;1.00
14252;DHT22;7210;51.502;10.722;2022-12-18T01:31:18;-10.00;1.00
14252;DHT22;7210;51.502;10.722;2022-12-18T01:33:47;-9.90;1.00
14252;DHT22;7210;51.502;10.722;2022-12-18T01:36:17;-9.90;1.00
14252;DHT22;7210;51.502;10.722;2022-12-18T01:38:46;-9.90;1.00
14252;DHT22;7210;51.502;10.722;2022-12-18T01:41:22;-9.90;1.00
14252;DHT22;7210;51.502;10.722;2022-12-18T01:43:53;-9.80;1.00
14252;DHT22;7210;51.502;10.722;2022-12-18T01:46:23;-9.80;1.00
14252;DHT22;7210;51.502;10.722;2022-12-18T01:48:57;-9.90;1.00
14252;DHT22;7210;51.502;10.722;2022-12-18T01:51:30;-10.00;1.00
14252;DHT22;7210;51.502;10.722;2022-12-18T01:53:57;-10.00;1.00
14252;DHT22;7210;51.502;10.722;2022-12-18T01:56:26;-10.10;1.00
14252;DHT22;7210;51.502;10.722;2022-12-18T01:58:56;-10.10;1.00
14252;DHT22;7210;51.502;10.722;2022-12-18T02:01:29;-10.10;1.00
14252;DHT22;7210;51.502;10.722;2022-12-18T02:04:19;-10.10;1.00
14252;DHT22;7210;51.502;10.722;2022-12-18T02:06:53;-10.10;1.00
14252;DHT22;7210;51.502;10.722;2022-12-18T02:09:28;-10.20;1.00
14252;DHT22;7210;51.502;10.722;2022-12-18T02:12:08;-10.30;1.00
14252;DHT22;7210;51.502;10.722;2022-12-18T02:14:46;-10.30;1.00
14252;DHT22;7210;51.502;10.722;2022-12-18T02:17:22;-10.30;1.00
14252;DHT22;7210;51.502;10.722;2022-12-18T02:20:04;-10.40;1.00
14252;DHT22;7210;51.502;10.722;2022-12-18T02:22:48;-10.40;1.00
14252;DHT22;7210;51.502;10.722;2022-12-18T02:25:58;-10.30;1.00
14252;DHT22;7210;51.502;10.722;2022-12-18T02:28:36;-10.30;1.00
14252;DHT22;7210;51.502;10.722;2022-12-18T02:31:11;-10.40;1.00
14252;DHT22;7210;51.502;10.722;2022-12-18T02:33:44;-10.30;1.00
14252;DHT22;7210;51.502;10.722;2022-12-18T02:36:13;-10.30;1.00
14252;DHT22;7210;51.502;10.722;2022-12-18T02:38:50;-10.40;1.00
14252;DHT22;7210;51.502;10.722;2022-12-18T02:41:21;-10.50;1.00
14252;DHT22;7210;51.502;10.722;2022-12-18T02:43:55;-10.40;1.00
14252;DHT22;7210;51.502;10.722;2022-12-18T02:46:27;-10.50;1.00
14252;DHT22;7210;51.502;10.722;2022-12-18T02:49:11;-10.50;1.00
14252;DHT22;7210;51.502;10.722;2022-12-18T02:51:51;-10.50;1.00
14252;DHT22;7210;51.502;10.722;2022-12-18T02:54:39;-10.50;1.00
14252;DHT22;7210;51.502;10.722;2022-12-18T02:57:23;-10.60;1.00
14252;DHT22;7210;51.502;10.722;2022-12-18T03:00:00;-10.70;1.00
14252;DHT22;7210;51.502;10.722;2022-12-18T03:02:37;-10.70;1.00
14252;DHT22;7210;51.502;10.722;2022-12-18T03:05:12;-10.70;1.00
14252;DHT22;7210;51.502;10.722;2022-12-18T03:07:49;-10.70;1.00
14252;DHT22;7210;51.502;10.722;2022-12-18T03:10:25;-10.70;1.00
14252;DHT22;7210;51.502;10.722;2022-12-18T03:13:02;-10.70;1.00
14252;DHT22;7210;51.502;10.722;2022-12-18T03:15:35;-10.70;1.00
14252;DHT22;7210;51.502;10.722;2022-12-18T03:18:13;-10.80;1.00
14252;DHT22;7210;51.502;10.722;2022-12-18T03:20:46;-10.80;1.00
14252;DHT22;7210;51.502;10.722;2022-12-18T03:23:22;-10.80;1.00
14252;DHT22;7210;51.502;10.722;2022-12-18T03:25:57;-10.80;1.00
14252;DHT22;7210;51.502;10.722;2022-12-18T03:28:30;-10.80;1.00
14252;DHT22;7210;51.502;10.722;2022-12-18T03:31:05;-10.90;1.00
14252;DHT22;7210;51.502;10.722;2022-12-18T03:33:39;-10.90;1.00
14252;DHT22;7210;51.502;10.722;2022-12-18T03:36:13;-10.90;1.00
14252;DHT22;7210;51.502;10.722;2022-12-18T03:38:41;-10.90;1.00
14252;DHT22;7210;51.502;10.722;2022-12-18T03:41:16;-10.90;1.00
14252;DHT22;7210;51.502;10.722;2022-12-18T03:44:26;-11.00;1.00
14252;DHT22;7210;51.502;10.722;2022-12-18T03:47:03;-10.90;1.00
14252;DHT22;7210;51.502;10.722;2022-12-18T03:49:36;-10.80;1.00
14252;DHT22;7210;51.502;10.722;2022-12-18T03:52:17;-10.80;1.00
14252;DHT22;7210;51.502;10.722;2022-12-18T03:54:48;-10.70;1.00
14252;DHT22;7210;51.502;10.722;2022-12-18T03:57:20;-10.80;1.00
14252;DHT22;7210;51.502;10.722;2022-12-18T03:59:56;-10.90;1.00
14252;DHT22;7210;51.502;10.722;2022-12-18T04:02:42;-11.00;1.00
14252;DHT22;7210;51.502;10.722;2022-12-18T04:05:19;-11.00;1.00
14252;DHT22;7210;51.502;10.722;2022-12-18T04:07:49;-11.10;1.00
14252;DHT22;7210;51.502;10.722;2022-12-18T04:10:18;-11.00;1.00
14252;DHT22;7210;51.502;10.722;2022-12-18T04:12:46;-10.90;1.00
14252;DHT22;7210;51.502;10.722;2022-12-18T04:15:16;-10.90;1.00
14252;DHT22;7210;51.502;10.722;2022-12-18T04:17:48;-10.90;1.00
14252;DHT22;7210;51.502;10.722;2022-12-18T04:20:19;-11.00;1.00
14252;DHT22;7210;51.502;10.722;2022-12-18T04:22:47;-11.00;1.00
14252;DHT22;7210;51.502;10.722;2022-12-18T04:25:14;-11.00;1.00
14252;DHT22;7210;51.502;10.722;2022-12-18T04:27:54;-11.00;1.00
14252;DHT22;7210;51.502;10.722;2022-12-18T04:30:23;-11.00;1.00
14252;DHT22;7210;51.502;10.722;2022-12-18T04:32:51;-10.90;1.00
14252;DHT22;7210;51.502;10.722;2022-12-18T04:35:19;-10.80;1.00
14252;DHT22;7210;51.502;10.722;2022-12-18T04:37:47;-10.70;1.00
14252;DHT22;7210;51.502;10.722;2022-12-18T04:40:15;-10.70;1.00
14252;DHT22;7210;51.502;10.722;2022-12-18T04:42:45;-10.70;1.00
14252;DHT22;7210;51.502;10.722;2022-12-18T04:45:13;-10.80;1.00
14252;DHT22;7210;51.502;10.722;2022-12-18T04:47:41;-10.90;1.00
14252;DHT22;7210;51.502;10.722;2022-12-18T04:50:13;-11.00;1.00
14252;DHT22;7210;51.502;10.722;2022-12-18T04:52:40;-11.00;1.00
14252;DHT22;7210;51.502;10.722;2022-12-18T04:55:07;-11.10;1.00
14252;DHT22;7210;51.502;10.722;2022-12-18T04:57:35;-11.10;1.00
14252;DHT22;7210;51.502;10.722;2022-12-18T05:00:03;-11.10;1.00
14252;DHT22;7210;51.502;10.722;2022-12-18T05:02:31;-11.20;1.00
14252;DHT22;7210;51.502;10.722;2022-12-18T05:05:00;-11.20;1.00
14252;DHT22;7210;51.502;10.722;2022-12-18T05:07:27;-11.30;1.00
14252;DHT22;7210;51.502;10.722;2022-12-18T05:09:55;-11.40;1.00
14252;DHT22;7210;51.502;10.722;2022-12-18T05:12:23;-11.30;1.00
14252;DHT22;7210;51.502;10.722;2022-12-18T05:14:50;-11.30;1.00
14252;DHT22;7210;51.502;10.722;2022-12-18T05:17:18;-11.20;1.00
14252;DHT22;7210;51.502;10.722;2022-12-18T05:19:45;-11.20;1.00
14252;DHT22;7210;51.502;10.722;2022-12-18T05:22:14;-11.00;1.00
14252;DHT22;7210;51.502;10.722;2022-12-18T05:24:41;-10.90;1.00
14252;DHT22;7210;51.502;10.722;2022-12-18T05:27:08;-10.90;1.00
14252;DHT22;7210;51.502;10.722;2022-12-18T05:29:36;-10.90;1.00
14252;DHT22;7210;51.502;10.722;2022-12-18T05:32:03;-11.00;1.00
14252;DHT22;7210;51.502;10.722;2022-12-18T05:34:31;-11.10;1.00
14252;DHT22;7210;51.502;10.722;2022-12-18T05:36:59;-11.10;1.00
14252;DHT22;7210;51.502;10.722;2022-12-18T05:39:27;-11.20;1.00
14252;DHT22;7210;51.502;10.722;2022-12-18T05:41:55;-11.20;1.00
14252;DHT22;7210;51.502;10.722;2022-12-18T05:44:22;-11.20;1.00
14252;DHT22;7210;51.502;10.722;2022-12-18T05:46:55;-11.20;1.00
14252;DHT22;7210;51.502;10.722;2022-12-18T05:49:22;-11.30;1.00
14252;DHT22;7210;51.502;10.722;2022-12-18T05:51:49;-11.30;1.00
14252;DHT22;7210;51.502;10.722;2022-12-18T05:54:16;-11.30;1.00
14252;DHT22;7210;51.502;10.722;2022-12-18T05:56:45;-11.20;1.00
14252;DHT22;7210;51.502;10.722;2022-12-18T05:59:13;-11.20;1.00
14252;DHT22;7210;51.502;10.722;2022-12-18T06:01:40;-11.10;1.00
14252;DHT22;7210;51.502;10.722;2022-12-18T06:04:08;-11.10;1.00
14252;DHT22;7210;51.502;10.722;2022-12-18T06:06:36;-11.20;1.00
14252;DHT22;7210;51.502;10.722;2022-12-18T06:09:03;-11.10;1.00
14252;DHT22;7210;51.502;10.722;2022-12-18T06:11:34;-11.10;1.00
14252;DHT22;7210;51.502;10.722;2022-12-18T06:14:05;-11.00;1.00
14252;DHT22;7210;51.502;10.722;2022-12-18T06:16:33;-11.00;1.00
14252;DHT22;7210;51.502;10.722;2022-12-18T06:19:03;-10.90;1.00
14252;DHT22;7210;51.502;10.722;2022-12-18T06:21:32;-11.00;1.00
14252;DHT22;7210;51.502;10.722;2022-12-18T06:24:00;-11.00;1.00
14252;DHT22;7210;51.502;10.722;2022-12-18T06:26:27;-11.20;1.00
14252;DHT22;7210;51.502;10.722;2022-12-18T06:28:54;-11.40;1.00
14252;DHT22;7210;51.502;10.722;2022-12-18T06:31:23;-11.50;1.00
14252;DHT22;7210;51.502;10.722;2022-12-18T06:33:51;-11.60;1.00
14252;DHT22;7210;51.502;10.722;2022-12-18T06:36:18;-11.50;1.00
14252;DHT22;7210;51.502;10.722;2022-12-18T06:38:46;-11.50;1.00
14252;DHT22;7210;51.502;10.722;2022-12-18T06:41:16;-11.40;1.00
14252;DHT22;7210;51.502;10.722;2022-12-18T06:43:45;-11.30;1.00
14252;DHT22;7210;51.502;10.722;2022-12-18T06:46:12;-11.50;1.00
14252;DHT22;7210;51.502;10.722;2022-12-18T06:48:41;-11.50;1.00
14252;DHT22;7210;51.502;10.722;2022-12-18T06:51:09;-11.40;1.00
14252;DHT22;7210;51.502;10.722;2022-12-18T06:53:37;-11.40;1.00
14252;DHT22;7210;51.502;10.722;2022-12-18T06:56:06;-11.30;1.00
14252;DHT22;7210;51.502;10.722;2022-12-18T06:58:34;-11.20;1.00
14252;DHT22;7210;51.502;10.722;2022-12-18T07:01:02;-11.10;1.00
14252;DHT22;7210;51.502;10.722;2022-12-18T07:03:31;-11.10;1.00
14252;DHT22;7210;51.502;10.722;2022-12-18T07:06:00;-11.10;1.00
14252;DHT22;7210;51.502;10.722;2022-12-18T07:08:28;-11.10;1.00
14252;DHT22;7210;51.502;10.722;2022-12-18T07:10:56;-11.10;1.00
14252;DHT22;7210;51.502;10.722;2022-12-18T07:13:23;-11.00;1.00
14252;DHT22;7210;51.502;10.722;2022-12-18T07:15:51;-11.00;1.00
14252;DHT22;7210;51.502;10.722;2022-12-18T07:18:18;-11.10;1.00
14252;DHT22;7210;51.502;10.722;2022-12-18T07:20:45;-11.20;1.00
14252;DHT22;7210;51.502;10.722;2022-12-18T07:23:14;-11.20;1.00
14252;DHT22;7210;51.502;10.722;2022-12-18T07:25:41;-11.30;1.00
14252;DHT22;7210;51.502;10.722;2022-12-18T07:28:08;-11.30;1.00
14252;DHT22;7210;51.502;10.722;2022-12-18T07:30:37;-11.40;1.00
14252;DHT22;7210;51.502;10.722;2022-12-18T07:33:19;-11.50;1.00
14252;DHT22;7210;51.502;10.722;2022-12-18T07:35:47;-11.60;1.00
14252;DHT22;7210;51.502;10.722;2022-12-18T07:38:16;-11.60;1.00
14252;DHT22;7210;51.502;10.722;2022-12-18T07:40:44;-11.50;1.00
14252;DHT22;7210;51.502;10.722;2022-12-18T07:43:11;-11.40;1.00
14252;DHT22;7210;51.502;10.722;2022-12-18T07:45:38;-11.40;1.00
14252;DHT22;7210;51.502;10.722;2022-12-18T07:48:06;-11.40;1.00
14252;DHT22;7210;51.502;10.722;2022-12-18T07:50:34;-11.50;1.00
14252;DHT22;7210;51.502;10.722;2022-12-18T07:53:01;-11.40;1.00
14252;DHT22;7210;51.502;10.722;2022-12-18T07:55:32;-11.40;1.00
14252;DHT22;7210;51.502;10.722;2022-12-18T07:58:04;-11.40;1.00
14252;DHT22;7210;51.502;10.722;2022-12-18T08:00:32;-11.30;1.00
14252;DHT22;7210;51.502;10.722;2022-12-18T08:03:00;-11.20;1.00
14252;DHT22;7210;51.502;10.722;2022-12-18T08:05:28;-11.20;1.00
14252;DHT22;7210;51.502;10.722;2022-12-18T08:07:55;-11.10;1.00
14252;DHT22;7210;51.502;10.722;2022-12-18T08:10:24;-11.00;1.00
14252;DHT22;7210;51.502;10.722;2022-12-18T08:12:54;-11.10;1.00
14252;DHT22;7210;51.502;10.722;2022-12-18T08:15:21;-11.00;1.00
14252;DHT22;7210;51.502;10.722;2022-12-18T08:17:49;-11.00;1.00
14252;DHT22;7210;51.502;10.722;2022-12-18T08:20:16;-11.00;1.00
14252;DHT22;7210;51.502;10.722;2022-12-18T08:22:44;-11.00;1.00
14252;DHT22;7210;51.502;10.722;2022-12-18T08:25:11;-10.90;1.00
14252;DHT22;7210;51.502;10.722;2022-12-18T08:27:38;-10.90;1.00
14252;DHT22;7210;51.502;10.722;2022-12-18T08:30:09;-10.90;1.00
14252;DHT22;7210;51.502;10.722;2022-12-18T08:32:37;-10.80;1.00
14252;DHT22;7210;51.502;10.722;2022-12-18T08:35:05;-10.70;1.00
14252;DHT22;7210;51.502;10.722;2022-12-18T08:37:34;-10.70;1.00
14252;DHT22;7210;51.502;10.722;2022-12-18T08:40:01;-10.70;1.00
14252;DHT22;7210;51.502;10.722;2022-12-18T08:42:28;-10.70;1.00
14252;DHT22;7210;51.502;10.722;2022-12-18T08:45:20;-10.60;1.00
14252;DHT22;7210;51.502;10.722;2022-12-18T08:47:47;-10.50;1.00
14252;DHT22;7210;51.502;10.722;2022-12-18T08:50:15;-10.50;1.00
14252;DHT22;7210;51.502;10.722;2022-12-18T08:52:42;-10.40;1.00
14252;DHT22;7210;51.502;10.722;2022-12-18T08:55:13;-10.30;1.00
14252;DHT22;7210;51.502;10.722;2022-12-18T08:57:40;-10.30;1.00
14252;DHT22;7210;51.502;10.722;2022-12-18T09:00:09;-10.20;1.00
14252;DHT22;7210;51.502;10.722;2022-12-18T09:02:40;-10.20;2.60
14252;DHT22;7210;51.502;10.722;2022-12-18T09:05:10;-10.10;3.90
14252;DHT22;7210;51.502;10.722;2022-12-18T09:07:37;-10.20;4.90
14252;DHT22;7210;51.502;10.722;2022-12-18T09:10:06;-10.20;5.20
14252;DHT22;7210;51.502;10.722;2022-12-18T09:12:33;-10.20;4.90
14252;DHT22;7210;51.502;10.722;2022-12-18T09:15:01;-10.10;4.60
14252;DHT22;7210;51.502;10.722;2022-12-18T09:17:28;-9.90;4.30
14252;DHT22;7210;51.502;10.722;2022-12-18T09:19:57;-9.80;6.40
14252;DHT22;7210;51.502;10.722;2022-12-18T09:22:24;-9.60;6.30
14252;DHT22;7210;51.502;10.722;2022-12-18T09:24:51;-9.70;9.10
14252;DHT22;7210;51.502;10.722;2022-12-18T09:27:19;-9.60;7.10
14252;DHT22;7210;51.502;10.722;2022-12-18T09:29:46;-9.40;7.30
14252;DHT22;7210;51.502;10.722;2022-12-18T09:32:14;-9.40;10.30
14252;DHT22;7210;51.502;10.722;2022-12-18T09:34:41;-9.20;6.50
14252;DHT22;7210;51.502;10.722;2022-12-18T09:37:14;-9.20;13.20
14252;DHT22;7210;51.502;10.722;2022-12-18T09:39:41;-9.30;14.20
14252;DHT22;7210;51.502;10.722;2022-12-18T09:42:17;-9.20;14.00
14252;DHT22;7210;51.502;10.722;2022-12-18T09:44:50;-9.10;14.90
14252;DHT22;7210;51.502;10.722;2022-12-18T09:47:23;-8.70;1.00
14252;DHT22;7210;51.502;10.722;2022-12-18T09:49:58;-8.60;1.00
14252;DHT22;7210;51.502;10.722;2022-12-18T09:52:33;-8.70;1.00
14252;DHT22;7210;51.502;10.722;2022-12-18T09:55:10;-8.60;1.00
14252;DHT22;7210;51.502;10.722;2022-12-18T09:57:56;-8.60;3.10
14252;DHT22;7210;51.502;10.722;2022-12-18T10:00:27;-8.60;6.70
14252;DHT22;7210;51.502;10.722;2022-12-18T10:02:59;-8.50;6.00
14252;DHT22;7210;51.502;10.722;2022-12-18T10:05:37;-8.40;6.40
14252;DHT22;7210;51.502;10.722;2022-12-18T10:08:18;-8.30;10.20
14252;DHT22;7210;51.502;10.722;2022-12-18T10:10:56;-8.30;12.60
14252;DHT22;7210;51.502;10.722;2022-12-18T10:13:31;-8.30;12.40
14252;DHT22;7210;51.502;10.722;2022-12-18T10:16:12;-7.70;1.00
14252;DHT22;7210;51.502;10.722;2022-12-18T10:19:11;-7.90;1.00
14252;DHT22;7210;51.502;10.722;2022-12-18T10:21:54;-7.90;1.00
14252;DHT22;7210;51.502;10.722;2022-12-18T10:24:33;-7.90;1.00
14252;DHT22;7210;51.502;10.722;2022-12-18T10:27:13;-7.90;4.00
14252;DHT22;7210;51.502;10.722;2022-12-18T10:29:42;-7.90;2.80
14252;DHT22;7210;51.502;10.722;2022-12-18T10:32:14;-7.80;2.20
14252;DHT22;7210;51.502;10.722;2022-12-18T10:34:47;-7.80;6.50
14252;DHT22;7210;51.502;10.722;2022-12-18T10:37:21;-7.80;8.50
14252;DHT22;7210;51.502;10.722;2022-12-18T10:40:07;-7.90;13.10
14252;DHT22;7210;51.502;10.722;2022-12-18T10:42:37;-7.80;12.40
14252;DHT22;7210;51.502;10.722;2022-12-18T10:45:10;-7.70;13.60
14252;DHT22;7210;51.502;10.722;2022-12-18T10:47:42;-7.60;17.80
14252;DHT22;7210;51.502;10.722;2022-12-18T10:50:20;-7.50;19.40
14252;DHT22;7210;51.502;10.722;2022-12-18T10:52:58;-7.50;21.20
14252;DHT22;7210;51.502;10.722;2022-12-18T10:55:32;-7.40;22.50
14252;DHT22;7210;51.502;10.722;2022-12-18T10:58:16;-7.40;24.90
14252;DHT22;7210;51.502;10.722;2022-12-18T11:01:03;-7.30;25.50
14252;DHT22;7210;51.502;10.722;2022-12-18T11:03:39;-7.30;30.80
14252;DHT22;7210;51.502;10.722;2022-12-18T11:06:10;-7.20;33.80
14252;DHT22;7210;51.502;10.722;2022-12-18T11:08:39;-7.10;32.70
14252;DHT22;7210;51.502;10.722;2022-12-18T11:11:19;-7.00;33.90
14252;DHT22;7210;51.502;10.722;2022-12-18T11:13:58;-6.90;38.10
14252;DHT22;7210;51.502;10.722;2022-12-18T11:16:31;-6.90;41.20
14252;DHT22;7210;51.502;10.722;2022-12-18T11:19:19;-6.90;43.80
14252;DHT22;7210;51.502;10.722;2022-12-18T11:21:54;-7.00;44.90
14252;DHT22;7210;51.502;10.722;2022-12-18T11:24:27;-6.90;40.70
14252;DHT22;7210;51.502;10.722;2022-12-18T11:27:02;-6.90;39.00
14252;DHT22;7210;51.502;10.722;2022-12-18T11:29:34;-6.80;39.50
14252;DHT22;7210;51.502;10.722;2022-12-18T11:32:24;-6.80;41.40
14252;DHT22;7210;51.502;10.722;2022-12-18T11:35:01;-6.70;42.50
14252;DHT22;7210;51.502;10.722;2022-12-18T11:37:39;-6.70;43.50
14252;DHT22;7210;51.502;10.722;2022-12-18T11:40:13;-6.70;44.90
14252;DHT22;7210;51.502;10.722;2022-12-18T11:42:50;-6.60;43.70
14252;DHT22;7210;51.502;10.722;2022-12-18T11:45:27;-6.50;47.80
14252;DHT22;7210;51.502;10.722;2022-12-18T11:48:03;-6.50;48.30
14252;DHT22;7210;51.502;10.722;2022-12-18T11:50:48;-6.70;50.60
14252;DHT22;7210;51.502;10.722;2022-12-18T11:53:17;-6.70;49.20
14252;DHT22;7210;51.502;10.722;2022-12-18T11:56:02;-6.80;50.50
14252;DHT22;7210;51.502;10.722;2022-12-18T11:58:49;-6.80;47.00
14252;DHT22;7210;51.502;10.722;2022-12-18T12:01:32;-6.70;41.90
14252;DHT22;7210;51.502;10.722;2022-12-18T12:04:27;-6.70;47.30
14252;DHT22;7210;51.502;10.722;2022-12-18T12:07:15;-6.70;47.70
14252;DHT22;7210;51.502;10.722;2022-12-18T12:09:57;-6.70;44.90
14252;DHT22;7210;51.502;10.722;2022-12-18T12:12:38;-6.80;43.90
14252;DHT22;7210;51.502;10.722;2022-12-18T12:15:30;-6.80;47.00
14252;DHT22;7210;51.502;10.722;2022-12-18T12:18:12;-6.20;1.00
14252;DHT22;7210;51.502;10.722;2022-12-18T12:20:53;-6.20;8.70
14252;DHT22;7210;51.502;10.722;2022-12-18T12:23:32;-6.30;13.90
14252;DHT22;7210;51.502;10.722;2022-12-18T12:26:08;-6.40;14.20
14252;DHT22;7210;51.502;10.722;2022-12-18T12:28:55;-6.50;11.10
14252;DHT22;7210;51.502;10.722;2022-12-18T12:31:52;-6.60;10.80
14252;DHT22;7210;51.502;10.722;2022-12-18T12:34:34;-6.70;15.30
14252;DHT22;7210;51.502;10.722;2022-12-18T12:37:20;-6.80;11.10
14252;DHT22;7210;51.502;10.722;2022-12-18T12:39:56;-6.90;11.40
14252;DHT22;7210;51.502;10.722;2022-12-18T12:42:30;-7.00;10.40
14252;DHT22;7210;51.502;10.722;2022-12-18T12:45:22;-7.10;8.40
14252;DHT22;7210;51.502;10.722;2022-12-18T12:47:58;-7.10;8.80
14252;DHT22;7210;51.502;10.722;2022-12-18T12:50:34;-7.20;8.50
14252;DHT22;7210;51.502;10.722;2022-12-18T12:53:06;-7.10;5.70
14252;DHT22;7210;51.502;10.722;2022-12-18T12:55:38;-7.20;6.70
14252;DHT22;7210;51.502;10.722;2022-12-18T12:58:13;-7.10;6.00
14252;DHT22;7210;51.502;10.722;2022-12-18T13:00:49;-7.10;6.00
14252;DHT22;7210;51.502;10.722;2022-12-18T13:03:34;-7.10;5.90
14252;DHT22;7210;51.502;10.722;2022-12-18T13:06:14;-7.10;5.70
14252;DHT22;7210;51.502;10.722;2022-12-18T13:08:56;-7.00;20.60
14252;DHT22;7210;51.502;10.722;2022-12-18T13:11:38;-6.90;10.50
14252;DHT22;7210;51.502;10.722;2022-12-18T13:14:28;-6.90;12.90
14252;DHT22;7210;51.502;10.722;2022-12-18T13:17:16;-6.80;13.10
14252;DHT22;7210;51.502;10.722;2022-12-18T13:20:07;-6.90;13.90
14252;DHT22;7210;51.502;10.722;2022-12-18T13:22:38;-6.90;12.60
14252;DHT22;7210;51.502;10.722;2022-12-18T13:25:30;-6.90;12.60
14252;DHT22;7210;51.502;10.722;2022-12-18T13:28:06;-6.80;12.80
14252;DHT22;7210;51.502;10.722;2022-12-18T13:30:47;-6.80;14.10
14252;DHT22;7210;51.502;10.722;2022-12-18T13:33:40;-6.70;14.60
14252;DHT22;7210;51.502;10.722;2022-12-18T13:36:23;-6.80;16.90
14252;DHT22;7210;51.502;10.722;2022-12-18T13:39:20;-6.80;17.00
14252;DHT22;7210;51.502;10.722;2022-12-18T13:41:51;-6.70;16.40
14252;DHT22;7210;51.502;10.722;2022-12-18T13:44:28;-6.80;15.90
14252;DHT22;7210;51.502;10.722;2022-12-18T13:46:59;-6.70;14.50
14252;DHT22;7210;51.502;10.722;2022-12-18T13:49:35;-6.70;17.20
14252;DHT22;7210;51.502;10.722;2022-12-18T13:52:17;-6.70;16.10
14252;DHT22;7210;51.502;10.722;2022-12-18T13:54:51;-6.70;15.90
14252;DHT22;7210;51.502;10.722;2022-12-18T13:57:27;-6.70;15.70
14252;DHT22;7210;51.502;10.722;2022-12-18T13:59:56;-6.70;16.30
14252;DHT22;7210;51.502;10.722;2022-12-18T14:02:26;-6.60;18.70
14252;DHT22;7210;51.502;10.722;2022-12-18T14:04:54;-6.70;18.00
14252;DHT22;7210;51.502;10.722;2022-12-18T14:07:25;-6.70;16.80
14252;DHT22;7210;51.502;10.722;2022-12-18T14:09:56;-6.70;17.00
14252;DHT22;7210;51.502;10.722;2022-12-18T14:12:27;-6.70;16.10
14252;DHT22;7210;51.502;10.722;2022-12-18T14:15:22;-6.70;18.80
14252;DHT22;7210;51.502;10.722;2022-12-18T14:17:58;-6.70;18.00
14252;DHT22;7210;51.502;10.722;2022-12-18T14:20:32;-6.70;15.10
14252;DHT22;7210;51.502;10.722;2022-12-18T14:23:01;-6.70;15.60
14252;DHT22;7210;51.502;10.722;2022-12-18T14:25:29;-6.70;16.20
14252;DHT22;7210;51.502;10.722;2022-12-18T14:28:12;-6.70;13.50
14252;DHT22;7210;51.502;10.722;2022-12-18T14:30:44;-6.60;14.20
14252;DHT22;7210;51.502;10.722;2022-12-18T14:33:14;-6.70;15.20
14252;DHT22;7210;51.502;10.722;2022-12-18T14:35:53;-6.70;14.30
14252;DHT22;7210;51.502;10.722;2022-12-18T14:38:28;-6.70;17.10
14252;DHT22;7210;51.502;10.722;2022-12-18T14:41:01;-6.80;15.40
14252;DHT22;7210;51.502;10.722;2022-12-18T14:43:32;-6.70;15.50
14252;DHT22;7210;51.502;10.722;2022-12-18T14:46:02;-6.80;16.10
14252;DHT22;7210;51.502;10.722;2022-12-18T14:48:37;-6.80;16.10
14252;DHT22;7210;51.502;10.722;2022-12-18T14:51:15;-6.80;15.10
14252;DHT22;7210;51.502;10.722;2022-12-18T14:53:46;-6.90;16.10
14252;DHT22;7210;51.502;10.722;2022-12-18T14:56:17;-6.80;15.10
14252;DHT22;7210;51.502;10.722;2022-12-18T14:58:48;-6.90;14.10
14252;DHT22;7210;51.502;10.722;2022-12-18T15:01:24;-6.90;14.10
14252;DHT22;7210;51.502;10.722;2022-12-18T15:03:55;-7.00;11.60
14252;DHT22;7210;51.502;10.722;2022-12-18T15:06:34;-7.00;11.00
14252;DHT22;7210;51.502;10.722;2022-12-18T15:09:20;-7.00;11.60
14252;DHT22;7210;51.502;10.722;2022-12-18T15:11:49;-6.90;12.30
14252;DHT22;7210;51.502;10.722;2022-12-18T15:14:22;-6.90;11.50
14252;DHT22;7210;51.502;10.722;2022-12-18T15:17:05;-6.80;9.50
14252;DHT22;7210;51.502;10.722;2022-12-18T15:19:42;-6.80;8.70
14252;DHT22;7210;51.502;10.722;2022-12-18T15:22:20;-6.80;10.50
14252;DHT22;7210;51.502;10.722;2022-12-18T15:24:53;-6.90;11.10
14252;DHT22;7210;51.502;10.722;2022-12-18T15:27:28;-6.90;11.20
14252;DHT22;7210;51.502;10.722;2022-12-18T15:30:21;-6.90;11.80
14252;DHT22;7210;51.502;10.722;2022-12-18T15:32:50;-6.90;12.70
14252;DHT22;7210;51.502;10.722;2022-12-18T15:35:20;-6.90;13.70
14252;DHT22;7210;51.502;10.722;2022-12-18T15:37:50;-6.90;12.80
14252;DHT22;7210;51.502;10.722;2022-12-18T15:40:20;-6.80;13.70
14252;DHT22;7210;51.502;10.722;2022-12-18T15:42:52;-6.80;12.30
14252;DHT22;7210;51.502;10.722;2022-12-18T15:45:38;-6.80;13.80
14252;DHT22;7210;51.502;10.722;2022-12-18T15:48:17;-6.70;17.10
14252;DHT22;7210;51.502;10.722;2022-12-18T15:50:48;-6.70;15.80
14252;DHT22;7210;51.502;10.722;2022-12-18T15:53:17;-6.70;18.50
14252;DHT22;7210;51.502;10.722;2022-12-18T15:55:47;-6.70;20.30
14252;DHT22;7210;51.502;10.722;2022-12-18T15:58:32;-6.80;21.10
14252;DHT22;7210;51.502;10.722;2022-12-18T16:01:00;-6.80;17.80
14252;DHT22;7210;51.502;10.722;2022-12-18T16:03:28;-6.70;16.20
14252;DHT22;7210;51.502;10.722;2022-12-18T16:05:55;-6.70;17.60
14252;DHT22;7210;51.502;10.722;2022-12-18T16:08:24;-6.70;17.40
14252;DHT22;7210;51.502;10.722;2022-12-18T16:10:52;-6.70;14.40
14252;DHT22;7210;51.502;10.722;2022-12-18T16:13:20;-6.70;13.90